Time;durP1;ratioP1;P1;durP2;ratioP2;P2;SDS_P1;SDS_P2;PMS_P1;PMS_P2;Temp;Humidity;BMP_temperature;BMP_pressure;BME280_temperature;BME280_humidity;BME280_pressure;Samples;Min_cycle;Max_cycle;Signal;HPM_P1;HPM_P2
2022/08/29 00:00:59;;;;;;;8.65;4.70;;;16.40;80.30;;;;;;5014491;28;20153;-73
2022/08/29 00:03:26;;;;;;;10.45;5.25;;;16.40;80.40;;;;;;5009193;28;20529;-73
2022/08/29 00:05:52;;;;;;;11.77;5.45;;;16.40;80.50;;;;;;5010335;28;20050;-72
2022/08/29 00:08:18;;;;;;;9.27;5.88;;;16.40;80.60;;;;;;5003925;28;20029;-73
2022/08/29 00:10:44;;;;;;;10.73;5.45;;;16.30;80.70;;;;;;5012702;28;20032;-73
2022/08/29 00:13:11;;;;;;;10.45;5.60;;;16.20;80.90;;;;;;5010026;28;20033;-74
2022/08/29 00:15:37;;;;;;;10.35;5.80;;;16.30;81.00;;;;;;5010524;28;20030;-72
2022/08/29 00:18:03;;;;;;;11.40;5.72;;;16.30;81.10;;;;;;5014066;28;20034;-73
2022/08/29 00:20:31;;;;;;;10.05;5.55;;;16.20;81.10;;;;;;5012106;28;20029;-74
2022/08/29 00:22:57;;;;;;;10.23;5.20;;;16.20;81.10;;;;;;5008642;28;20466;-73
2022/08/29 00:25:23;;;;;;;11.65;5.65;;;16.20;81.20;;;;;;5009365;28;20088;-73
2022/08/29 00:27:49;;;;;;;10.35;5.50;;;16.20;81.30;;;;;;5018194;28;20056;-73
2022/08/29 00:30:17;;;;;;;10.80;5.30;;;16.10;81.50;;;;;;5022589;28;20490;-72
2022/08/29 00:32:43;;;;;;;10.88;5.95;;;16.10;81.70;;;;;;5018839;28;20065;-73
2022/08/29 00:35:22;;;;;;;9.85;5.80;;;16.10;81.80;;;;;;5011290;28;20579;-73
2022/08/29 00:37:48;;;;;;;10.07;5.28;;;16.00;81.90;;;;;;5019466;28;20033;-73
2022/08/29 00:40:17;;;;;;;9.05;5.25;;;16.10;81.90;;;;;;5008008;28;20026;-73
2022/08/29 00:42:43;;;;;;;11.18;5.30;;;16.10;81.80;;;;;;5009563;28;20061;-72
2022/08/29 00:45:11;;;;;;;9.70;4.93;;;16.10;81.70;;;;;;5010717;28;20062;-72
2022/08/29 00:47:44;;;;;;;10.48;4.78;;;16.10;81.80;;;;;;5019944;28;20068;-72
2022/08/29 00:50:18;;;;;;;8.75;5.20;;;16.10;81.70;;;;;;5014346;28;20521;-73
2022/08/29 00:52:46;;;;;;;12.13;5.25;;;16.10;81.60;;;;;;5007648;28;20042;-73
2022/08/29 00:55:18;;;;;;;10.10;4.80;;;16.10;81.70;;;;;;5013099;28;20034;-73
2022/08/29 00:57:49;;;;;;;8.48;4.97;;;16.10;81.70;;;;;;5014910;28;20046;-74
2022/08/29 01:00:16;;;;;;;8.10;4.90;;;16.10;81.70;;;;;;5014617;28;20038;-72
2022/08/29 01:02:42;;;;;;;8.07;4.13;;;16.10;81.70;;;;;;5000656;28;20524;-72
2022/08/29 01:05:10;;;;;;;7.90;4.10;;;16.10;81.70;;;;;;5016083;28;20035;-73
2022/08/29 01:07:36;;;;;;;9.13;4.78;;;16.10;81.60;;;;;;5015401;28;20037;-74
2022/08/29 01:10:04;;;;;;;8.82;4.68;;;16.10;81.60;;;;;;5014211;28;20045;-73
2022/08/29 01:12:31;;;;;;;13.52;4.82;;;16.10;81.60;;;;;;5009686;28;20049;-73
2022/08/29 01:15:01;;;;;;;11.00;5.18;;;16.10;81.70;;;;;;5020275;28;20545;-73
2022/08/29 01:17:41;;;;;;;8.85;5.00;;;16.10;81.70;;;;;;5012370;28;20096;-74
2022/08/29 01:20:19;;;;;;;9.38;5.47;;;16.10;81.90;;;;;;5005792;28;20034;-72
2022/08/29 01:23:25;;;;;;;8.65;4.80;;;16.00;81.80;;;;;;5006938;28;20046;-73
2022/08/29 01:25:51;;;;;;;10.23;5.38;;;16.10;81.70;;;;;;5017948;28;20371;-73
2022/08/29 01:28:31;;;;;;;9.10;4.88;;;16.10;81.50;;;;;;5011920;28;20172;-74
2022/08/29 01:31:07;;;;;;;10.50;5.30;;;16.00;81.70;;;;;;5012343;28;20042;-73
2022/08/29 01:33:49;;;;;;;13.30;5.25;;;16.00;81.80;;;;;;5012353;28;20042;-73
2022/08/29 01:36:22;;;;;;;8.70;4.78;;;15.90;82.00;;;;;;5013066;28;20477;-73
2022/08/29 01:38:48;;;;;;;9.82;4.20;;;15.90;82.20;;;;;;5021405;28;20641;-73
2022/08/29 01:41:15;;;;;;;8.18;4.47;;;15.90;82.10;;;;;;5010870;28;20042;-74
2022/08/29 01:43:44;;;;;;;9.40;4.45;;;15.90;82.20;;;;;;5027067;28;20072;-73
2022/08/29 01:46:13;;;;;;;9.82;4.28;;;15.80;82.30;;;;;;5019926;28;20049;-73
2022/08/29 01:48:41;;;;;;;9.80;4.68;;;15.80;82.30;;;;;;5017833;28;20044;-72
2022/08/29 01:51:07;;;;;;;8.57;4.50;;;15.80;82.20;;;;;;5001118;28;20034;-74
2022/08/29 01:53:33;;;;;;;7.63;4.43;;;15.80;82.20;;;;;;5003716;28;20470;-74
2022/08/29 01:56:18;;;;;;;9.10;3.70;;;15.80;82.20;;;;;;5014806;28;20115;-73
2022/08/29 01:58:46;;;;;;;7.35;4.03;;;15.80;82.10;;;;;;5001491;28;20157;-74
2022/08/29 02:01:14;;;;;;;8.32;4.00;;;15.90;82.00;;;;;;5008900;28;20437;-72
2022/08/29 02:03:39;;;;;;;8.70;4.18;;;15.90;82.00;;;;;;5041435;28;20029;-73
2022/08/29 02:06:08;;;;;;;8.88;3.90;;;15.90;81.90;;;;;;5015572;28;20466;-73
2022/08/29 02:08:35;;;;;;;8.98;4.15;;;15.90;81.90;;;;;;5010002;28;20053;-72
2022/08/29 02:11:01;;;;;;;7.75;3.67;;;15.90;81.80;;;;;;5013306;28;20058;-74
2022/08/29 02:13:28;;;;;;;9.30;4.10;;;15.90;81.90;;;;;;5011526;28;20115;-73
2022/08/29 02:15:53;;;;;;;8.35;4.65;;;16.00;81.80;;;;;;5014275;28;20059;-73
2022/08/29 02:18:20;;;;;;;6.85;3.70;;;15.90;81.70;;;;;;5016088;28;20128;-73
2022/08/29 02:20:46;;;;;;;7.50;3.80;;;15.90;81.60;;;;;;5016217;28;20044;-73
2022/08/29 02:23:12;;;;;;;11.50;4.40;;;16.00;81.60;;;;;;5010584;28;20045;-73
2022/08/29 02:25:40;;;;;;;10.55;5.22;;;15.90;81.50;;;;;;5020250;28;20105;-73
2022/08/29 02:28:07;;;;;;;7.47;4.53;;;15.90;81.40;;;;;;5009922;28;20033;-73
2022/08/29 02:30:33;;;;;;;7.25;4.05;;;15.80;81.50;;;;;;5015109;28;20397;-76
2022/08/29 02:32:59;;;;;;;11.27;4.50;;;15.80;81.90;;;;;;5009843;28;20046;-73
2022/08/29 02:35:25;;;;;;;9.02;4.72;;;15.70;82.00;;;;;;5011176;28;20032;-73
2022/08/29 02:37:51;;;;;;;11.65;4.95;;;15.60;82.30;;;;;;5014576;28;20435;-74
2022/08/29 02:40:17;;;;;;;8.23;4.80;;;15.70;82.30;;;;;;5017029;28;20050;-73
2022/08/29 02:42:43;;;;;;;9.65;4.88;;;15.60;82.40;;;;;;5016528;28;20042;-73
2022/08/29 02:45:09;;;;;;;9.00;4.72;;;15.60;82.40;;;;;;5015855;28;20044;-73
2022/08/29 02:47:36;;;;;;;8.70;4.50;;;15.60;82.30;;;;;;5004030;28;20057;-73
2022/08/29 02:50:07;;;;;;;7.82;4.57;;;15.60;82.40;;;;;;5008774;28;20109;-73
2022/08/29 02:52:33;;;;;;;8.80;4.60;;;15.50;82.40;;;;;;5009303;28;20038;-73
2022/08/29 02:54:59;;;;;;;9.05;4.50;;;15.50;82.40;;;;;;5008354;28;20045;-76
2022/08/29 02:57:24;;;;;;;9.52;4.90;;;15.50;82.40;;;;;;5002551;28;20042;-73
2022/08/29 02:59:50;;;;;;;8.63;4.78;;;15.50;82.40;;;;;;5005988;28;20131;-73
2022/08/29 03:02:16;;;;;;;12.77;4.78;;;15.40;82.40;;;;;;5002323;28;20038;-72
2022/08/29 03:04:41;;;;;;;8.88;3.80;;;15.50;82.40;;;;;;5016187;28;20034;-72
2022/08/29 03:07:07;;;;;;;7.35;3.72;;;15.50;82.30;;;;;;5009512;28;20157;-74
2022/08/29 03:09:33;;;;;;;8.38;4.32;;;15.50;82.30;;;;;;5015930;28;20037;-73
2022/08/29 03:11:59;;;;;;;9.82;4.20;;;15.50;82.20;;;;;;5010003;28;20060;-72
2022/08/29 03:14:24;;;;;;;9.70;4.30;;;15.50;82.20;;;;;;5019608;28;20436;-73
2022/08/29 03:16:50;;;;;;;10.27;4.47;;;15.40;82.30;;;;;;5015363;28;20033;-72
2022/08/29 03:19:17;;;;;;;10.20;4.68;;;15.40;82.50;;;;;;5007948;28;20421;-73
2022/08/29 03:21:46;;;;;;;9.80;4.50;;;15.40;82.50;;;;;;5012565;28;20041;-75
2022/08/29 03:24:12;;;;;;;8.77;4.28;;;15.40;82.40;;;;;;5014393;28;20080;-73
2022/08/29 03:26:38;;;;;;;10.77;4.20;;;15.30;82.60;;;;;;5010179;28;20029;-74
2022/08/29 03:29:15;;;;;;;10.30;4.50;;;15.30;82.60;;;;;;5006016;28;20037;-74
2022/08/29 03:31:43;;;;;;;10.02;4.28;;;15.30;82.60;;;;;;5024978;28;20041;-74
2022/08/29 03:34:13;;;;;;;9.15;4.38;;;15.30;82.50;;;;;;5009600;28;20046;-73
2022/08/29 03:36:40;;;;;;;8.98;3.95;;;15.30;82.40;;;;;;5008697;28;20022;-75
2022/08/29 03:39:26;;;;;;;9.95;4.40;;;15.30;82.40;;;;;;5013288;28;20040;-77
2022/08/29 03:41:58;;;;;;;9.02;3.97;;;15.30;82.30;;;;;;5036159;28;20216;-74
2022/08/29 03:44:24;;;;;;;10.60;4.40;;;15.30;82.20;;;;;;5013670;28;20035;-73
2022/08/29 03:46:53;;;;;;;8.68;4.25;;;15.30;82.20;;;;;;5007989;28;20394;-74
2022/08/29 03:49:21;;;;;;;11.38;5.15;;;15.30;82.30;;;;;;5014302;28;20034;-73
2022/08/29 03:52:21;;;;;;;11.25;4.30;;;15.30;82.10;;;;;;5017549;28;20044;-73
2022/08/29 03:54:59;;;;;;;9.30;4.28;;;15.30;82.00;;;;;;5029945;28;20034;-73
2022/08/29 03:57:33;;;;;;;10.55;4.35;;;15.30;81.90;;;;;;5009399;28;20079;-74
2022/08/29 04:00:00;;;;;;;8.55;4.22;;;15.30;81.90;;;;;;5023943;28;20475;-73
2022/08/29 04:02:41;;;;;;;10.25;3.95;;;15.30;82.00;;;;;;5001185;28;20068;-73
2022/08/29 04:05:17;;;;;;;9.70;4.32;;;15.30;82.00;;;;;;4994744;28;20459;-74
2022/08/29 04:08:37;;;;;;;8.65;4.00;;;15.20;82.00;;;;;;4980074;28;20113;-73
2022/08/29 04:10:39;;;;;;;12.32;4.45;;;15.20;82.20;;;;;;4999186;28;20111;-74
2022/08/29 04:13:26;;;;;;;11.00;4.00;;;15.20;81.90;;;;;;4955746;28;1626779;-73
2022/08/29 04:15:55;;;;;;;9.95;4.00;;;15.20;82.00;;;;;;4976249;28;20058;-74
2022/08/29 04:18:52;;;;;;;8.95;4.40;;;15.20;82.00;;;;;;5007220;28;20454;-73
2022/08/29 04:21:18;;;;;;;8.65;4.45;;;15.20;82.00;;;;;;5001366;28;20028;-74
2022/08/29 04:23:48;;;;;;;8.50;4.70;;;15.30;81.90;;;;;;5011136;28;20021;-73
2022/08/29 04:26:17;;;;;;;10.18;3.88;;;15.20;81.70;;;;;;5016050;28;20030;-73
2022/08/29 04:28:53;;;;;;;9.35;4.43;;;15.20;81.80;;;;;;5022233;28;20115;-73
2022/08/29 04:31:28;;;;;;;12.38;5.05;;;15.20;82.00;;;;;;5010437;28;20354;-74
2022/08/29 04:33:54;;;;;;;9.80;4.60;;;15.10;82.10;;;;;;5017527;28;20034;-75
2022/08/29 04:36:20;;;;;;;9.23;4.38;;;15.10;82.00;;;;;;5010884;28;20026;-73
2022/08/29 04:38:46;;;;;;;10.13;3.53;;;15.10;82.00;;;;;;5036023;28;20035;-73
2022/08/29 04:41:15;;;;;;;9.82;4.75;;;15.10;82.00;;;;;;5020113;28;20033;-75
2022/08/29 04:44:09;;;;;;;10.48;4.25;;;15.10;81.90;;;;;;5013431;28;20104;-73
2022/08/29 04:46:48;;;;;;;10.20;4.10;;;15.10;82.10;;;;;;4986175;28;20465;-73
2022/08/29 04:49:26;;;;;;;11.82;4.30;;;15.10;82.00;;;;;;4997423;28;20034;-76
2022/08/29 04:51:55;;;;;;;11.38;4.18;;;15.10;82.00;;;;;;4992883;28;20044;-73
2022/08/29 04:54:21;;;;;;;9.07;4.20;;;15.10;82.10;;;;;;4992285;28;20096;-72
2022/08/29 04:56:47;;;;;;;10.55;4.10;;;15.00;82.20;;;;;;4985828;28;20037;-73
2022/08/29 04:59:14;;;;;;;11.13;4.72;;;14.90;82.40;;;;;;5013899;28;20026;-73
2022/08/29 05:01:40;;;;;;;8.95;3.53;;;15.00;82.30;;;;;;5010739;28;20089;-72
2022/08/29 05:04:06;;;;;;;9.10;4.00;;;15.00;82.40;;;;;;5016039;28;20037;-74
2022/08/29 05:06:31;;;;;;;8.55;4.10;;;15.00;82.30;;;;;;5017662;28;20096;-73
2022/08/29 05:08:57;;;;;;;9.63;4.18;;;14.90;82.30;;;;;;5009390;28;20108;-73
2022/08/29 05:11:23;;;;;;;9.38;3.97;;;14.90;82.50;;;;;;5009145;28;20121;-73
2022/08/29 05:13:49;;;;;;;11.05;4.43;;;14.90;82.50;;;;;;5006472;28;20065;-73
2022/08/29 05:16:16;;;;;;;8.93;4.25;;;14.90;82.50;;;;;;4994681;28;20035;-73
2022/08/29 05:18:43;;;;;;;10.70;4.47;;;14.90;82.70;;;;;;5003719;28;20038;-73
2022/08/29 05:21:09;;;;;;;10.63;5.13;;;14.90;82.50;;;;;;5004218;28;20025;-74
2022/08/29 05:23:35;;;;;;;13.65;4.28;;;14.90;82.40;;;;;;5009268;28;20541;-72
2022/08/29 05:26:03;;;;;;;11.77;4.85;;;15.00;82.20;;;;;;5006974;28;20117;-73
2022/08/29 05:28:30;;;;;;;12.68;4.57;;;14.90;82.20;;;;;;5007415;28;20022;-73
2022/08/29 05:30:57;;;;;;;11.52;3.90;;;14.90;82.00;;;;;;4998605;28;20040;-73
2022/08/29 05:33:23;;;;;;;9.88;4.20;;;14.90;82.00;;;;;;5016109;28;20112;-73
2022/08/29 05:35:49;;;;;;;10.05;4.22;;;14.90;82.10;;;;;;5019667;28;20125;-73
2022/08/29 05:38:15;;;;;;;9.48;4.57;;;15.00;82.00;;;;;;5023617;28;20029;-73
2022/08/29 05:40:41;;;;;;;12.10;4.65;;;15.00;82.00;;;;;;5024241;28;20028;-72
2022/08/29 05:43:08;;;;;;;9.38;3.78;;;15.00;81.90;;;;;;5008932;28;20097;-72
2022/08/29 05:45:36;;;;;;;11.57;4.13;;;15.00;81.90;;;;;;5009613;28;20072;-72
2022/08/29 05:48:03;;;;;;;9.27;4.35;;;14.90;82.00;;;;;;5002646;28;20034;-73
2022/08/29 05:50:29;;;;;;;13.93;4.63;;;15.00;81.90;;;;;;5008668;28;20121;-73
2022/08/29 05:52:55;;;;;;;10.57;4.15;;;15.10;81.60;;;;;;5003361;28;20147;-72
2022/08/29 05:55:20;;;;;;;9.30;3.90;;;15.10;81.50;;;;;;5006244;28;20049;-72
2022/08/29 05:57:48;;;;;;;11.27;4.40;;;15.10;81.40;;;;;;5010133;28;20311;-72
2022/08/29 06:00:15;;;;;;;10.38;4.20;;;15.10;81.30;;;;;;5005437;28;20153;-72
2022/08/29 06:02:40;;;;;;;11.35;4.60;;;15.10;81.30;;;;;;5020916;28;20109;-72
2022/08/29 06:05:06;;;;;;;10.02;4.75;;;15.10;81.20;;;;;;5012850;28;20104;-73
2022/08/29 06:07:32;;;;;;;12.35;4.32;;;15.10;81.40;;;;;;5013731;28;20543;-73
2022/08/29 06:10:00;;;;;;;10.85;4.60;;;15.10;81.30;;;;;;5018569;28;20021;-72
2022/08/29 06:12:26;;;;;;;11.18;4.47;;;15.10;81.40;;;;;;5014835;28;20431;-72
2022/08/29 06:14:52;;;;;;;10.60;4.38;;;15.30;81.20;;;;;;5009037;28;20457;-73
2022/08/29 06:17:18;;;;;;;9.23;4.10;;;15.30;80.90;;;;;;4994347;28;20117;-74
2022/08/29 06:19:44;;;;;;;8.70;3.90;;;15.30;81.00;;;;;;4997561;28;20018;-73
2022/08/29 06:22:10;;;;;;;11.38;4.70;;;15.40;80.50;;;;;;5000411;28;20035;-73
2022/08/29 06:24:38;;;;;;;9.05;4.13;;;15.60;80.20;;;;;;4998807;28;20104;-73
2022/08/29 06:27:03;;;;;;;12.65;4.65;;;15.60;80.00;;;;;;4998122;28;20019;-74
2022/08/29 06:29:29;;;;;;;10.40;3.90;;;15.60;79.60;;;;;;5008987;28;20462;-73
2022/08/29 06:31:55;;;;;;;11.18;4.05;;;15.70;79.40;;;;;;4996382;28;20026;-72
2022/08/29 06:34:21;;;;;;;9.02;3.78;;;16.00;79.30;;;;;;5010551;28;22729;-72
2022/08/29 06:36:47;;;;;;;8.85;3.45;;;16.10;78.40;;;;;;5010696;28;20029;-72
2022/08/29 06:39:13;;;;;;;8.40;4.03;;;16.30;78.10;;;;;;5013595;28;20034;-73
2022/08/29 06:41:40;;;;;;;11.77;4.60;;;16.40;77.70;;;;;;5009310;28;20454;-74
2022/08/29 06:44:07;;;;;;;8.82;4.10;;;16.60;77.10;;;;;;5021454;28;20037;-74
2022/08/29 06:46:36;;;;;;;10.82;4.20;;;16.60;76.30;;;;;;5009582;28;20109;-74
2022/08/29 06:49:04;;;;;;;11.20;4.28;;;16.80;76.10;;;;;;5015623;28;20033;-73
2022/08/29 06:51:31;;;;;;;8.95;3.75;;;16.90;75.20;;;;;;5013610;28;20030;-76
2022/08/29 06:54:01;;;;;;;13.00;3.85;;;17.10;74.60;;;;;;5014307;28;20037;-73
2022/08/29 06:56:27;;;;;;;10.18;3.80;;;17.30;73.70;;;;;;4995176;28;20236;-75
2022/08/29 06:58:53;;;;;;;12.27;3.67;;;17.50;73.80;;;;;;5020737;28;20034;-74
2022/08/29 07:01:19;;;;;;;11.13;3.90;;;17.50;72.40;;;;;;5010388;28;20026;-73
2022/08/29 07:03:45;;;;;;;11.70;3.33;;;17.50;72.20;;;;;;5018011;28;20046;-73
2022/08/29 07:06:12;;;;;;;7.68;3.60;;;17.70;72.30;;;;;;5013433;28;20060;-73
2022/08/29 07:08:38;;;;;;;9.35;3.40;;;17.90;71.40;;;;;;5005042;28;20030;-74
2022/08/29 07:11:04;;;;;;;10.07;3.38;;;18.10;70.10;;;;;;5001040;28;20033;-73
2022/08/29 07:13:30;;;;;;;10.20;3.50;;;18.20;69.60;;;;;;5006843;28;20038;-74
2022/08/29 07:15:57;;;;;;;11.73;3.30;;;18.30;69.30;;;;;;5005938;28;20049;-73
2022/08/29 07:18:23;;;;;;;12.45;3.47;;;18.50;68.70;;;;;;4992522;28;20612;-73
2022/08/29 07:20:48;;;;;;;9.82;3.30;;;18.60;68.00;;;;;;5037046;28;20029;-73
2022/08/29 07:23:15;;;;;;;10.65;3.13;;;18.70;67.40;;;;;;4995985;28;20025;-73
2022/08/29 07:25:40;;;;;;;8.10;3.13;;;18.90;67.40;;;;;;5031134;28;20038;-73
2022/08/29 07:28:06;;;;;;;8.95;3.10;;;19.10;66.20;;;;;;4998472;28;20018;-74
2022/08/29 07:30:32;;;;;;;8.57;3.22;;;19.10;66.00;;;;;;4996145;28;20038;-75
2022/08/29 07:32:58;;;;;;;10.35;3.25;;;19.30;64.40;;;;;;5009589;28;20041;-74
2022/08/29 07:35:25;;;;;;;10.70;2.92;;;19.30;64.90;;;;;;5007074;28;20056;-73
2022/08/29 07:37:54;;;;;;;7.13;2.60;;;19.20;64.20;;;;;;5019086;28;20469;-74
2022/08/29 07:40:20;;;;;;;8.35;2.63;;;19.20;64.30;;;;;;5006797;28;20061;-75
2022/08/29 07:42:46;;;;;;;9.23;3.00;;;19.30;64.00;;;;;;4998555;28;20089;-74
2022/08/29 07:45:12;;;;;;;8.18;3.03;;;19.30;63.70;;;;;;4996505;28;20026;-73
2022/08/29 07:47:38;;;;;;;11.05;2.90;;;19.40;63.30;;;;;;4998954;28;20030;-75
2022/08/29 07:50:06;;;;;;;8.80;2.50;;;19.50;63.40;;;;;;5000839;28;20034;-75
2022/08/29 07:52:32;;;;;;;9.30;2.63;;;19.20;63.00;;;;;;4997476;28;20125;-73
2022/08/29 07:54:58;;;;;;;8.30;2.47;;;19.40;62.80;;;;;;5004638;28;20519;-75
2022/08/29 07:57:24;;;;;;;7.55;2.40;;;19.60;62.10;;;;;;5007515;28;21256;-74
2022/08/29 07:59:50;;;;;;;8.55;2.70;;;19.90;60.40;;;;;;5000990;28;20049;-77
2022/08/29 08:02:16;;;;;;;8.52;3.13;;;19.80;59.70;;;;;;5002649;28;20026;-75
2022/08/29 08:04:42;;;;;;;8.27;2.92;;;20.00;59.80;;;;;;4999750;28;20033;-74
2022/08/29 08:07:09;;;;;;;7.65;2.38;;;20.20;59.30;;;;;;5002187;28;20034;-74
2022/08/29 08:09:35;;;;;;;10.80;3.13;;;20.50;58.60;;;;;;5004287;28;20022;-74
2022/08/29 08:12:01;;;;;;;10.00;3.20;;;20.50;57.70;;;;;;5012204;28;20099;-74
2022/08/29 08:14:27;;;;;;;8.23;2.90;;;20.60;56.90;;;;;;5012759;28;20034;-78
2022/08/29 08:16:53;;;;;;;9.32;3.33;;;20.40;57.50;;;;;;5007532;28;20475;-76
2022/08/29 08:19:19;;;;;;;9.80;2.70;;;20.50;57.20;;;;;;5003070;28;20355;-76
2022/08/29 08:21:44;;;;;;;8.15;2.78;;;20.40;56.70;;;;;;4976158;28;20034;-76
2022/08/29 08:24:10;;;;;;;8.23;2.70;;;20.50;57.00;;;;;;4991456;28;20038;-77
2022/08/29 08:26:36;;;;;;;9.38;2.85;;;20.20;57.00;;;;;;4990492;28;20069;-76
2022/08/29 08:29:03;;;;;;;8.55;2.72;;;20.10;57.30;;;;;;5007265;28;20030;-77
2022/08/29 08:31:30;;;;;;;7.88;2.60;;;20.50;56.30;;;;;;4986848;28;20032;-78
2022/08/29 08:33:55;;;;;;;7.55;2.72;;;20.50;55.30;;;;;;4989379;28;20030;-76
2022/08/29 08:36:28;;;;;;;7.55;2.53;;;20.60;55.60;;;;;;4992702;28;20037;-75
2022/08/29 08:38:55;;;;;;;7.53;3.08;;;20.80;55.50;;;;;;4997787;28;20124;-77
2022/08/29 08:41:56;;;;;;;6.93;2.15;;;21.10;54.10;;;;;;4997275;28;20034;-75
2022/08/29 08:44:22;;;;;;;8.23;2.80;;;21.50;52.90;;;;;;5033501;28;20042;-74
2022/08/29 08:46:51;;;;;;;7.72;2.63;;;21.60;51.90;;;;;;4999260;28;20117;-75
2022/08/29 08:49:26;;;;;;;7.65;2.67;;;21.60;51.40;;;;;;5003810;28;20464;-72
2022/08/29 08:51:57;;;;;;;6.40;2.75;;;21.80;51.80;;;;;;4996564;28;20500;-72
2022/08/29 08:54:26;;;;;;;8.55;2.42;;;21.80;50.90;;;;;;5005401;28;20188;-75
2022/08/29 08:57:08;;;;;;;9.40;2.55;;;22.00;50.00;;;;;;4996644;28;20041;-75
2022/08/29 08:59:48;;;;;;;10.20;2.83;;;22.00;50.90;;;;;;5000884;28;20397;-79
2022/08/29 09:02:14;;;;;;;8.27;2.67;;;22.10;50.50;;;;;;4998313;28;20081;-76
2022/08/29 09:05:04;;;;;;;8.00;2.95;;;22.20;50.50;;;;;;5000671;28;20030;-74
2022/08/29 09:07:46;;;;;;;7.88;2.65;;;22.10;49.40;;;;;;5003525;28;20385;-73
2022/08/29 09:10:15;;;;;;;6.78;2.42;;;22.10;49.30;;;;;;5003085;28;20058;-72
2022/08/29 09:13:10;;;;;;;9.27;2.78;;;21.20;51.40;;;;;;4999535;28;20498;-73
2022/08/29 09:15:41;;;;;;;;;;;21.30;52.80;;;;;;5007139;28;20512;-73
2022/08/29 09:18:19;;;;;;;10.00;3.05;;;21.30;51.50;;;;;;5006492;28;20039;-73
2022/08/29 09:20:45;;;;;;;8.80;3.00;;;21.40;51.10;;;;;;4999669;28;20034;-73
2022/08/29 09:23:31;;;;;;;8.52;2.97;;;21.40;51.70;;;;;;4998208;28;20061;-72
2022/08/29 09:25:57;;;;;;;8.52;3.05;;;21.50;51.60;;;;;;4997619;28;20508;-75
2022/08/29 09:28:23;;;;;;;8.25;3.13;;;22.10;51.00;;;;;;5006263;28;20842;-73
2022/08/29 09:31:16;;;;;;;10.63;3.45;;;22.40;50.00;;;;;;5001284;28;20042;-71
2022/08/29 09:33:47;;;;;;;7.93;2.83;;;21.70;49.80;;;;;;5002106;28;20042;-73
2022/08/29 09:36:32;;;;;;;8.00;3.03;;;21.90;51.40;;;;;;4997392;28;20118;-72
2022/08/29 09:39:20;;;;;;;6.07;2.70;;;22.20;49.90;;;;;;4998584;28;20030;-72
2022/08/29 09:41:51;;;;;;;9.25;2.90;;;22.20;49.30;;;;;;5006272;28;20030;-70
2022/08/29 09:44:32;;;;;;;7.78;2.55;;;22.50;49.30;;;;;;5008698;28;20029;-70
2022/08/29 09:47:13;;;;;;;11.05;3.00;;;22.10;49.00;;;;;;5005386;28;20030;-72
2022/08/29 09:49:49;;;;;;;6.70;2.90;;;22.10;49.30;;;;;;5004042;28;20029;-71
2022/08/29 09:52:23;;;;;;;10.52;3.13;;;22.50;49.10;;;;;;5006882;28;20022;-71
2022/08/29 09:54:48;;;;;;;6.60;3.08;;;22.60;48.70;;;;;;5005279;28;20112;-72
2022/08/29 09:57:17;;;;;;;8.65;3.30;;;22.70;48.30;;;;;;5003281;28;20109;-73
2022/08/29 09:59:46;;;;;;;7.47;3.10;;;23.00;47.90;;;;;;5003272;28;20054;-71
2022/08/29 10:02:31;;;;;;;8.38;3.28;;;23.10;47.80;;;;;;5005918;28;20034;-71
2022/08/29 10:05:08;;;;;;;7.68;3.28;;;23.30;46.40;;;;;;5001372;28;20034;-72
2022/08/29 10:07:56;;;;;;;8.73;3.17;;;23.30;46.70;;;;;;5005787;28;20077;-71
2022/08/29 10:10:33;;;;;;;7.57;3.28;;;23.40;46.90;;;;;;5006169;28;20490;-73
2022/08/29 10:13:07;;;;;;;8.88;3.10;;;23.40;47.00;;;;;;4999307;28;20107;-72
2022/08/29 10:16:09;;;;;;;9.68;3.90;;;23.50;45.40;;;;;;5005448;28;20034;-72
2022/08/29 10:18:57;;;;;;;11.98;4.25;;;23.20;46.50;;;;;;4967802;28;20061;-72
2022/08/29 10:21:31;;;;;;;12.68;3.95;;;22.90;47.30;;;;;;5002822;28;22451;-71
2022/08/29 10:24:18;;;;;;;9.50;3.75;;;23.10;47.40;;;;;;5000623;28;20034;-72
2022/08/29 10:27:05;;;;;;;9.80;3.20;;;22.60;47.50;;;;;;4998924;28;20031;-72
2022/08/29 10:29:48;;;;;;;12.18;3.80;;;22.50;48.40;;;;;;5004661;28;20485;-73
2022/08/29 10:32:22;;;;;;;10.75;3.78;;;22.80;47.40;;;;;;5015013;28;20040;-71
2022/08/29 10:35:11;;;;;;;8.15;3.92;;;23.00;48.00;;;;;;4997341;28;20038;-72
2022/08/29 10:37:55;;;;;;;8.70;3.50;;;23.40;47.00;;;;;;5002326;28;20363;-72
2022/08/29 10:40:48;;;;;;;8.85;3.13;;;23.50;47.10;;;;;;4996554;28;20026;-71
2022/08/29 10:43:33;;;;;;;9.07;3.28;;;23.30;45.70;;;;;;4993739;28;20418;-72
2022/08/29 10:46:25;;;;;;;9.60;3.85;;;23.10;46.50;;;;;;5009121;28;20049;-72
2022/08/29 10:49:24;;;;;;;7.35;3.58;;;23.40;46.60;;;;;;4999858;28;20057;-73
2022/08/29 10:52:05;;;;;;;10.20;4.00;;;23.70;46.20;;;;;;4998976;28;20042;-73
2022/08/29 10:55:04;;;;;;;10.45;4.47;;;23.50;45.80;;;;;;4999086;28;20038;-71
2022/08/29 10:57:38;;;;;;;10.57;4.07;;;23.10;45.00;;;;;;5003528;28;20045;-74
2022/08/29 11:00:09;;;;;;;8.05;3.63;;;23.20;45.80;;;;;;4995305;28;20034;-73
2022/08/29 11:02:40;;;;;;;9.82;3.83;;;23.00;46.10;;;;;;5007121;28;20477;-73
2022/08/29 11:05:22;;;;;;;10.50;4.30;;;22.70;46.90;;;;;;4998943;28;20389;-74
2022/08/29 11:08:04;;;;;;;8.88;3.75;;;22.60;46.30;;;;;;5009516;28;20108;-71
2022/08/29 11:10:39;;;;;;;10.27;3.63;;;23.00;46.10;;;;;;5024020;28;20038;-71
2022/08/29 11:13:18;;;;;;;9.38;3.55;;;23.50;45.70;;;;;;5013765;28;20045;-71
2022/08/29 11:16:01;;;;;;;10.35;4.05;;;23.50;44.90;;;;;;5001542;28;20034;-71
2022/08/29 11:18:53;;;;;;;11.55;4.22;;;23.70;44.70;;;;;;4992642;28;20036;-74
2022/08/29 11:21:35;;;;;;;9.13;3.90;;;24.10;44.70;;;;;;5002357;28;20108;-70
2022/08/29 11:24:02;;;;;;;11.13;4.30;;;23.50;44.50;;;;;;5010326;28;20034;-70
2022/08/29 11:26:48;;;;;;;8.25;3.80;;;23.50;45.30;;;;;;5003373;28;20066;-73
2022/08/29 11:29:25;;;;;;;8.45;4.15;;;24.10;43.30;;;;;;5002531;28;20371;-70
2022/08/29 11:32:17;;;;;;;13.60;4.50;;;23.90;43.20;;;;;;5001656;28;20056;-71
2022/08/29 11:34:56;;;;;;;8.95;4.20;;;23.50;44.30;;;;;;5019345;28;20148;-71
2022/08/29 11:37:32;;;;;;;11.40;4.75;;;24.10;43.40;;;;;;5011303;28;20057;-71
2022/08/29 11:40:36;;;;;;;10.40;4.13;;;24.20;43.50;;;;;;5007405;28;20041;-71
2022/08/29 11:43:04;;;;;;;9.02;4.00;;;23.80;43.40;;;;;;5006871;28;20033;-71
2022/08/29 11:45:36;;;;;;;10.23;4.28;;;23.80;43.80;;;;;;5003307;28;20045;-70
2022/08/29 11:48:32;;;;;;;9.65;4.03;;;23.60;43.90;;;;;;5008277;28;20038;-71
2022/08/29 11:50:58;;;;;;;10.20;4.03;;;23.80;44.10;;;;;;5003816;28;20065;-73
2022/08/29 11:53:32;;;;;;;10.40;4.50;;;24.10;43.10;;;;;;4999245;28;20138;-71
2022/08/29 11:56:13;;;;;;;8.27;4.28;;;23.80;42.30;;;;;;5010414;28;20034;-72
2022/08/29 11:58:43;;;;;;;11.00;4.55;;;24.00;42.40;;;;;;5000300;28;20069;-71
2022/08/29 12:01:31;;;;;;;10.50;4.28;;;23.70;42.60;;;;;;5004356;28;20038;-73
2022/08/29 12:03:58;;;;;;;9.48;4.30;;;23.50;44.10;;;;;;4999959;28;20109;-73
2022/08/29 12:06:51;;;;;;;8.85;4.10;;;23.90;44.30;;;;;;5004297;28;20038;-73
2022/08/29 12:09:39;;;;;;;9.80;4.43;;;24.40;43.00;;;;;;4997225;28;20045;-72
2022/08/29 12:12:11;;;;;;;8.73;4.05;;;24.50;41.90;;;;;;4997307;28;20133;-72
2022/08/29 12:14:49;;;;;;;9.65;4.03;;;24.30;41.90;;;;;;5000910;28;20046;-71
2022/08/29 12:17:29;;;;;;;10.95;4.28;;;24.30;41.80;;;;;;5030463;28;20030;-71
2022/08/29 12:19:55;;;;;;;8.23;3.97;;;24.00;42.70;;;;;;5001884;28;20089;-72
2022/08/29 12:22:42;;;;;;;8.75;3.63;;;23.60;42.70;;;;;;5029860;28;20066;-71
2022/08/29 12:25:26;;;;;;;9.63;3.75;;;23.90;42.40;;;;;;5005743;28;20045;-73
2022/08/29 12:28:14;;;;;;;10.85;4.60;;;24.20;41.50;;;;;;5000967;28;20034;-72
2022/08/29 12:30:49;;;;;;;9.18;4.13;;;24.40;42.00;;;;;;5005553;28;20042;-72
2022/08/29 12:33:47;;;;;;;9.25;3.85;;;24.80;40.40;;;;;;5000937;28;20034;-72
2022/08/29 12:36:18;;;;;;;9.50;3.80;;;24.10;40.30;;;;;;5018509;28;20042;-72
2022/08/29 12:39:02;;;;;;;10.77;4.35;;;24.00;40.90;;;;;;5000011;28;20038;-73
2022/08/29 12:41:49;;;;;;;9.50;4.22;;;24.10;41.30;;;;;;4998181;28;20121;-72
2022/08/29 12:44:21;;;;;;;9.68;4.20;;;24.30;41.00;;;;;;5020318;28;20442;-74
2022/08/29 12:46:52;;;;;;;7.03;3.70;;;24.40;40.90;;;;;;5008303;28;20037;-72
2022/08/29 12:49:25;;;;;;;10.27;3.75;;;24.40;40.20;;;;;;5008972;28;20064;-72
2022/08/29 12:52:00;;;;;;;8.23;3.80;;;24.50;40.60;;;;;;5040177;28;20045;-71
2022/08/29 12:54:38;;;;;;;9.25;3.58;;;24.30;40.20;;;;;;5021542;28;20272;-72
2022/08/29 12:57:18;;;;;;;8.55;3.58;;;24.20;40.40;;;;;;5015066;28;20521;-74
2022/08/29 12:59:50;;;;;;;11.70;3.65;;;24.60;40.50;;;;;;5010444;28;20564;-71
2022/08/29 13:02:34;;;;;;;10.63;3.65;;;24.50;39.50;;;;;;5017720;28;20037;-71
2022/08/29 13:05:01;;;;;;;;;;;24.50;39.90;;;;;;5015712;28;20053;-70
2022/08/29 13:07:28;;;;;;;10.00;4.10;;;24.50;39.10;;;;;;5019252;28;19909;-71